Time;durP1;ratioP1;P1;durP2;ratioP2;P2;SDS_P1;SDS_P2;PMS_P1;PMS_P2;Temp;Humidity;BMP_temperature;BMP_pressure;BME280_temperature;BME280_humidity;BME280_pressure;Samples;Min_cycle;Max_cycle;Signal;HPM_P1;HPM_P2
2023/12/20 00:01:13;;;;;;;12.52;7.13;;;5.00;99.90;;;;;;4955734;28;20038;-91
2023/12/20 00:03:41;;;;;;;14.23;10.13;;;4.90;99.90;;;;;;4959576;28;20453;-90
2023/12/20 00:06:11;;;;;;;12.80;7.15;;;4.90;99.90;;;;;;4930122;29;20024;-91
2023/12/20 00:08:44;;;;;;;11.35;6.50;;;4.90;99.90;;;;;;4929986;29;20136;-91
2023/12/20 00:11:10;;;;;;;12.38;6.57;;;4.90;99.90;;;;;;4953006;28;20023;-91
2023/12/20 00:13:37;;;;;;;12.15;6.88;;;4.90;99.90;;;;;;4959856;29;20115;-91
2023/12/20 00:16:11;;;;;;;12.23;7.30;;;5.00;99.90;;;;;;4945812;29;20055;-90
2023/12/20 00:18:38;;;;;;;15.02;7.72;;;4.90;99.90;;;;;;4930211;29;20154;-90
2023/12/20 00:21:07;;;;;;;14.95;7.80;;;4.80;99.90;;;;;;4964369;28;20035;-89
2023/12/20 00:23:55;;;;;;;12.25;7.32;;;4.90;99.90;;;;;;4965815;28;20474;-92
2023/12/20 00:27:21;;;;;;;12.27;6.80;;;4.90;99.90;;;;;;4961132;28;20102;-91
2023/12/20 00:34:01;;;;;;;11.98;6.82;;;4.90;99.90;;;;;;4965959;29;20045;-91
2023/12/20 00:39:56;;;;;;;12.55;7.05;;;4.90;99.90;;;;;;5007014;23;20055;-89
2023/12/20 00:43:30;;;;;;;12.93;7.57;;;4.90;99.90;;;;;;4948880;29;20035;-89
2023/12/20 00:46:47;;;;;;;13.60;7.07;;;4.90;99.90;;;;;;4946711;29;20028;-89
2023/12/20 00:49:29;;;;;;;14.88;10.15;;;5.00;99.90;;;;;;4956739;28;20398;-90
2023/12/20 00:52:17;;;;;;;14.45;7.90;;;4.90;99.90;;;;;;4964511;29;20051;-90
2023/12/20 00:55:15;;;;;;;10.80;7.43;;;4.90;99.90;;;;;;4922425;29;20047;-90
2023/12/20 00:58:32;;;;;;;13.63;7.88;;;4.90;99.90;;;;;;4942306;29;20028;-90
2023/12/20 01:01:35;;;;;;;14.02;7.90;;;4.90;99.90;;;;;;4944739;29;20047;-90
2023/12/20 01:04:47;;;;;;;12.45;7.03;;;4.90;99.90;;;;;;4924370;29;20100;-90
2023/12/20 01:10:37;;;;;;;12.30;6.50;;;5.00;99.90;;;;;;4970288;23;20055;-89
2023/12/20 01:17:21;;;;;;;13.43;8.35;;;4.90;99.90;;;;;;4969521;28;20045;-90
2023/12/20 01:23:57;;;;;;;12.77;7.25;;;4.90;99.90;;;;;;4945535;29;20034;-89
2023/12/20 01:26:45;;;;;;;15.20;7.97;;;4.90;99.90;;;;;;4939605;29;20031;-88
2023/12/20 01:32:55;;;;;;;14.40;8.30;;;4.90;99.90;;;;;;4904698;29;20043;-89
2023/12/20 01:36:07;;;;;;;13.45;7.53;;;4.90;99.90;;;;;;4904558;29;20093;-91
2023/12/20 01:42:08;;;;;;;11.38;7.18;;;4.90;99.90;;;;;;4945002;29;19914;-91
2023/12/20 01:44:38;;;;;;;16.42;8.68;;;4.90;99.90;;;;;;4926676;29;20035;-90
2023/12/20 01:52:45;;;;;;;16.02;9.30;;;4.90;99.90;;;;;;4944220;29;20127;-88
2023/12/20 01:58:15;;;;;;;10.55;7.15;;;5.00;99.90;;;;;;4906163;29;20052;-90
2023/12/20 02:00:46;;;;;;;12.80;6.80;;;5.00;99.90;;;;;;4907876;29;20033;-91
2023/12/20 02:03:17;;;;;;;14.20;7.60;;;5.00;99.90;;;;;;4902465;29;20043;-91
2023/12/20 02:05:45;;;;;;;14.50;8.05;;;5.00;99.90;;;;;;4888261;29;20044;-91
2023/12/20 02:08:19;;;;;;;11.75;7.25;;;5.00;99.90;;;;;;4886058;29;20037;-90
2023/12/20 02:10:51;;;;;;;13.13;8.00;;;5.00;99.90;;;;;;4906058;29;20037;-90
2023/12/20 02:13:31;;;;;;;16.40;9.27;;;5.00;99.90;;;;;;4907110;29;20110;-91
2023/12/20 02:16:03;;;;;;;15.25;8.40;;;5.00;99.90;;;;;;4906405;29;20044;-90
2023/12/20 02:18:35;;;;;;;12.65;6.90;;;5.00;99.90;;;;;;4906703;29;20036;-89
2023/12/20 02:21:43;;;;;;;14.57;7.38;;;5.00;99.90;;;;;;4911709;29;20329;-92
2023/12/20 02:24:12;;;;;;;16.40;7.85;;;5.00;99.90;;;;;;4903701;29;20055;-91
2023/12/20 02:26:41;;;;;;;12.38;7.40;;;5.00;99.90;;;;;;4906204;29;20045;-89
2023/12/20 02:29:13;;;;;;;14.90;7.30;;;5.00;99.90;;;;;;4905971;29;20496;-91
2023/12/20 02:32:16;;;;;;;11.45;8.00;;;5.10;99.90;;;;;;4908636;29;20369;-91
2023/12/20 02:35:07;;;;;;;13.48;6.40;;;5.10;99.90;;;;;;4907522;29;20020;-90
2023/12/20 02:37:41;;;;;;;13.82;7.38;;;5.10;99.90;;;;;;4886439;29;20045;-90
2023/12/20 02:40:41;;;;;;;11.77;6.88;;;5.00;99.90;;;;;;4883826;29;20037;-91
2023/12/20 02:43:06;;;;;;;;;;;5.00;99.90;;;;;;4888353;29;20388;-89
2023/12/20 02:45:36;;;;;;;14.07;7.90;;;5.00;99.90;;;;;;4887364;29;19914;-89
2023/12/20 02:48:29;;;;;;;12.70;8.60;;;5.00;99.90;;;;;;4900063;29;20040;-90
2023/12/20 02:51:05;;;;;;;;;;;5.00;99.90;;;;;;4906577;29;20105;-90
2023/12/20 02:53:42;;;;;;;14.10;9.55;;;5.10;99.90;;;;;;4906942;29;20352;-90
2023/12/20 02:56:30;;;;;;;14.60;8.23;;;5.10;99.90;;;;;;4906538;29;20499;-89
2023/12/20 02:59:01;;;;;;;15.60;7.55;;;5.00;99.90;;;;;;4906490;29;20033;-91
2023/12/20 03:01:29;;;;;;;15.35;8.52;;;5.10;99.90;;;;;;4904926;29;20057;-90
2023/12/20 03:03:57;;;;;;;10.07;7.03;;;5.10;99.90;;;;;;4869198;29;20045;-91
2023/12/20 03:07:04;;;;;;;14.75;9.13;;;5.10;99.90;;;;;;4882603;29;20501;-89
2023/12/20 03:09:36;;;;;;;12.35;7.05;;;5.10;99.90;;;;;;4899709;29;20032;-92
2023/12/20 03:12:07;;;;;;;15.18;6.75;;;5.10;99.90;;;;;;4923800;29;21932;-90
2023/12/20 03:14:39;;;;;;;12.57;6.60;;;5.10;99.90;;;;;;4919292;29;20059;-90
2023/12/20 03:17:16;;;;;;;15.95;8.38;;;5.10;99.90;;;;;;4910048;29;20032;-91
2023/12/20 03:19:52;;;;;;;11.95;6.82;;;5.10;99.90;;;;;;4908965;29;20036;-90
2023/12/20 03:22:20;;;;;;;14.27;7.00;;;5.00;99.90;;;;;;4909377;29;20039;-89
2023/12/20 03:24:48;;;;;;;;;;;5.10;99.90;;;;;;4893356;29;20045;-88
2023/12/20 03:27:19;;;;;;;11.75;5.93;;;5.10;99.90;;;;;;4909016;29;19908;-90
2023/12/20 03:29:46;;;;;;;12.43;6.78;;;5.10;99.90;;;;;;4908975;29;20480;-89
2023/12/20 03:32:20;;;;;;;11.45;6.68;;;5.10;99.90;;;;;;4910481;29;20032;-91
2023/12/20 03:35:11;;;;;;;11.95;6.65;;;5.20;99.90;;;;;;4893806;29;20030;-89
2023/12/20 03:37:59;;;;;;;10.93;6.05;;;5.10;99.90;;;;;;4893062;29;20044;-89
2023/12/20 03:40:28;;;;;;;9.25;5.95;;;5.10;99.90;;;;;;4894814;29;20029;-90
2023/12/20 03:42:54;;;;;;;11.68;7.43;;;5.10;99.90;;;;;;4906199;29;20519;-90
2023/12/20 03:45:23;;;;;;;11.00;6.00;;;5.20;99.90;;;;;;4890684;29;20032;-90
2023/12/20 03:47:55;;;;;;;13.45;6.45;;;5.20;99.90;;;;;;4920276;29;20033;-91
2023/12/20 03:50:24;;;;;;;14.18;7.55;;;5.10;99.90;;;;;;4892249;29;20040;-88
2023/12/20 03:52:51;;;;;;;10.90;6.00;;;5.20;99.90;;;;;;4893783;29;20103;-91
2023/12/20 03:55:17;;;;;;;10.50;6.47;;;5.20;99.90;;;;;;4926457;29;20615;-90
2023/12/20 03:57:46;;;;;;;12.73;6.57;;;5.20;99.90;;;;;;4927152;29;20063;-88
2023/12/20 04:00:12;;;;;;;8.43;5.80;;;5.10;99.90;;;;;;4927902;29;20021;-93
2023/12/20 04:02:42;;;;;;;10.15;5.72;;;5.10;99.90;;;;;;4908545;29;20040;-88
2023/12/20 04:05:09;;;;;;;9.48;5.85;;;5.20;99.90;;;;;;4891421;29;20085;-90
2023/12/20 04:07:39;;;;;;;10.32;5.78;;;5.20;99.90;;;;;;4906522;29;20044;-92
2023/12/20 04:10:08;;;;;;;10.13;5.80;;;5.20;99.90;;;;;;4909202;29;20048;-89
2023/12/20 04:12:36;;;;;;;9.38;5.47;;;5.20;99.90;;;;;;4910473;29;20041;-91
2023/12/20 04:15:08;;;;;;;10.88;6.07;;;5.30;99.90;;;;;;4908657;29;20053;-92
2023/12/20 04:17:36;;;;;;;11.05;6.68;;;5.20;99.90;;;;;;4907944;29;20585;-90
2023/12/20 04:20:10;;;;;;;10.63;5.82;;;5.30;99.90;;;;;;4908036;29;20029;-91
2023/12/20 04:22:45;;;;;;;9.98;5.70;;;5.30;99.90;;;;;;4922943;29;20036;-89
2023/12/20 04:25:11;;;;;;;11.05;6.97;;;5.30;99.90;;;;;;4927476;29;20476;-90
2023/12/20 04:27:37;;;;;;;10.45;5.07;;;5.20;99.90;;;;;;4912427;29;20037;-90
2023/12/20 04:30:04;;;;;;;8.40;5.40;;;5.30;99.90;;;;;;4891917;29;20037;-91
2023/12/20 04:32:35;;;;;;;9.75;5.43;;;5.40;99.90;;;;;;4900254;29;20033;-94
2023/12/20 04:35:04;;;;;;;10.35;5.63;;;5.30;99.90;;;;;;4917421;29;20039;-92
2023/12/20 04:37:29;;;;;;;9.38;5.63;;;5.30;99.90;;;;;;4904803;29;20121;-90
2023/12/20 04:39:58;;;;;;;9.52;7.15;;;5.30;99.90;;;;;;4890627;29;20029;-89
2023/12/20 04:42:35;;;;;;;9.13;4.85;;;5.30;99.90;;;;;;4889042;29;20056;-90
2023/12/20 05:04:48;;;;;;;9.80;5.90;;;5.30;99.90;;;;;;4927034;29;20043;-91
2023/12/20 05:24:12;;;;;;;12.10;7.32;;;5.30;99.90;;;;;;4908377;29;20051;-91
2023/12/20 05:27:06;;;;;;;9.98;6.15;;;5.30;99.90;;;;;;4890281;29;20046;-92
2023/12/20 05:30:01;;;;;;;12.25;7.07;;;5.30;99.90;;;;;;4905731;29;20088;-88
2023/12/20 05:32:31;;;;;;;10.52;6.85;;;5.30;99.90;;;;;;4891752;29;20035;-91
2023/12/20 05:38:46;;;;;;;10.45;6.25;;;5.30;99.90;;;;;;4908278;29;20391;-91
2023/12/20 05:41:14;;;;;;;11.25;6.38;;;5.40;99.90;;;;;;4890980;29;20056;-91
2023/12/20 05:43:44;;;;;;;8.35;5.88;;;5.40;99.90;;;;;;4907231;29;20020;-90
2023/12/20 05:46:17;;;;;;;12.07;6.28;;;5.40;99.90;;;;;;4890542;29;20089;-91
2023/12/20 05:48:43;;;;;;;9.52;5.72;;;5.40;99.90;;;;;;4890594;29;20778;-91
2023/12/20 05:51:14;;;;;;;11.02;6.90;;;5.40;99.90;;;;;;4895863;29;20054;-91
2023/12/20 05:53:46;;;;;;;10.05;5.35;;;5.40;99.90;;;;;;4889860;29;20037;-91
2023/12/20 05:56:12;;;;;;;9.88;6.40;;;5.40;99.90;;;;;;4887175;29;20025;-92
2023/12/20 05:58:45;;;;;;;10.38;6.50;;;5.40;99.90;;;;;;4890348;29;20051;-91
2023/12/20 06:01:17;;;;;;;9.85;5.10;;;5.40;99.90;;;;;;4872040;29;20033;-92
2023/12/20 06:03:45;;;;;;;11.93;8.85;;;5.40;99.90;;;;;;4879761;29;20535;-91
2023/12/20 06:06:18;;;;;;;9.88;5.07;;;5.40;99.90;;;;;;4887159;29;20077;-91
2023/12/20 06:08:44;;;;;;;10.63;6.40;;;5.40;99.90;;;;;;4890548;29;20516;-91
2023/12/20 06:11:10;;;;;;;8.93;5.53;;;5.40;99.90;;;;;;4889828;29;20068;-92
2023/12/20 06:13:39;;;;;;;9.02;5.10;;;5.40;99.90;;;;;;4890544;29;20095;-91
2023/12/20 06:16:19;;;;;;;9.27;5.13;;;5.40;99.90;;;;;;4889412;29;20092;-91
2023/12/20 06:18:48;;;;;;;7.90;5.05;;;5.40;99.90;;;;;;4892589;29;20488;-91
2023/12/20 06:21:59;;;;;;;8.77;5.70;;;5.50;99.90;;;;;;4887818;29;20194;-92
2023/12/20 06:24:34;;;;;;;9.50;5.70;;;5.40;99.90;;;;;;4874673;29;20028;-91
2023/12/20 06:27:03;;;;;;;8.45;5.22;;;5.40;99.90;;;;;;4888691;29;20025;-90
2023/12/20 06:29:29;;;;;;;12.70;5.82;;;5.40;99.90;;;;;;4873580;29;20037;-92
2023/12/20 06:31:57;;;;;;;6.90;4.95;;;5.30;99.90;;;;;;4873462;29;20495;-92
2023/12/20 06:34:23;;;;;;;8.30;4.93;;;5.30;99.90;;;;;;4903350;29;20037;-91
2023/12/20 06:36:57;;;;;;;7.72;4.88;;;5.30;99.90;;;;;;4906793;29;20072;-91
2023/12/20 06:39:30;;;;;;;6.53;4.60;;;5.40;99.90;;;;;;4905998;29;20079;-91
2023/12/20 06:41:56;;;;;;;7.70;5.18;;;5.30;99.90;;;;;;4907382;29;20025;-92
2023/12/20 06:44:24;;;;;;;7.63;5.20;;;5.40;99.90;;;;;;4891193;29;20079;-93
2023/12/20 06:46:57;;;;;;;8.32;4.43;;;5.30;99.90;;;;;;4887755;29;20025;-91
2023/12/20 06:49:23;;;;;;;8.18;5.15;;;5.40;99.90;;;;;;4891404;29;20132;-92
2023/12/20 06:51:53;;;;;;;7.25;4.35;;;5.30;99.90;;;;;;4910437;29;20058;-91
2023/12/20 06:54:24;;;;;;;8.65;5.15;;;5.30;99.90;;;;;;4894591;29;20055;-90
2023/12/20 06:56:49;;;;;;;6.57;3.72;;;5.30;99.90;;;;;;4893975;29;20038;-88
2023/12/20 06:59:15;;;;;;;7.68;4.45;;;5.30;99.90;;;;;;4889713;29;20123;-88
2023/12/20 07:01:41;;;;;;;7.03;4.80;;;5.20;99.90;;;;;;4889948;29;20058;-87
2023/12/20 07:04:07;;;;;;;7.35;6.10;;;5.20;99.90;;;;;;4892693;29;20043;-86
2023/12/20 07:06:32;;;;;;;7.25;4.68;;;5.20;99.90;;;;;;4893525;29;20290;-90
2023/12/20 07:09:15;;;;;;;6.90;4.47;;;5.10;99.90;;;;;;4905332;29;20105;-89
2023/12/20 07:11:42;;;;;;;6.95;4.65;;;5.10;99.90;;;;;;4911315;29;20087;-91
2023/12/20 07:14:11;;;;;;;8.20;4.47;;;5.10;99.90;;;;;;4896304;29;20029;-90
2023/12/20 07:20:17;;;;;;;6.50;3.75;;;5.20;99.90;;;;;;4878534;29;20064;-90
2023/12/20 07:22:57;;;;;;;6.90;4.50;;;5.10;99.90;;;;;;4910602;29;20033;-90
2023/12/20 07:32:39;;;;;;;8.02;5.13;;;5.00;99.90;;;;;;4976400;23;20045;-91
2023/12/20 07:35:05;;;;;;;10.27;7.00;;;4.90;99.90;;;;;;4911010;29;20044;-91
2023/12/20 07:37:48;;;;;;;10.10;5.63;;;4.90;99.90;;;;;;4929204;29;20092;-91
2023/12/20 07:41:07;;;;;;;11.68;5.32;;;5.00;99.90;;;;;;4912363;29;20024;-92
2023/12/20 07:43:49;;;;;;;9.38;6.13;;;4.90;99.90;;;;;;4912095;29;20129;-91
2023/12/20 08:01:11;;;;;;;7.45;3.35;;;4.90;99.90;;;;;;5644248;23;20055;-89
2023/12/20 08:11:48;;;;;;;4.72;3.30;;;4.90;99.90;;;;;;4866609;29;20036;-91
2023/12/20 08:18:45;;;;;;;10.35;5.85;;;4.80;99.90;;;;;;4797933;29;20096;-91
2023/12/20 08:32:07;;;;;;;8.48;5.43;;;4.80;99.90;;;;;;5461040;23;20051;-89
2023/12/20 08:35:13;;;;;;;7.53;4.95;;;4.80;99.90;;;;;;4886460;29;20047;-91
2023/12/20 08:44:53;;;;;;;8.60;4.53;;;4.70;99.90;;;;;;4898959;29;20063;-90
2023/12/20 08:48:17;;;;;;;6.57;4.40;;;4.80;99.90;;;;;;4908921;29;20037;-91
2023/12/20 08:51:22;;;;;;;;;;;;;;;;;;;;;
2023/12/20 08:54:07;;;;;;;7.38;4.10;;;4.90;99.90;;;;;;4873561;29;20100;-91
2023/12/20 09:02:47;;;;;;;6.97;4.88;;;5.10;99.90;;;;;;5290749;23;20059;-89
2023/12/20 09:05:13;;;;;;;7.80;4.18;;;5.10;99.90;;;;;;4913611;29;20028;-89
2023/12/20 09:07:39;;;;;;;5.72;3.33;;;5.20;99.90;;;;;;4892943;29;20028;-90
2023/12/20 09:10:05;;;;;;;4.35;3.63;;;5.20;99.90;;;;;;4892293;29;20033;-90
2023/12/20 09:12:32;;;;;;;5.63;3.63;;;5.20;99.90;;;;;;4887639;29;20033;-90
2023/12/20 09:15:07;;;;;;;8.48;4.63;;;5.20;99.90;;;;;;4888504;29;20400;-89
2023/12/20 09:17:35;;;;;;;6.00;3.30;;;5.20;99.90;;;;;;4904928;29;20033;-89
2023/12/20 09:20:06;;;;;;;5.57;3.45;;;5.30;99.90;;;;;;4889469;29;20093;-92
2023/12/20 09:22:33;;;;;;;5.15;3.97;;;5.30;99.90;;;;;;4889615;29;20059;-92
2023/12/20 09:25:00;;;;;;;6.35;3.45;;;5.40;99.90;;;;;;4906056;29;20029;-90
2023/12/20 09:27:26;;;;;;;5.20;2.90;;;5.40;99.90;;;;;;4888585;29;20075;-90
2023/12/20 09:29:55;;;;;;;10.10;3.60;;;5.40;99.90;;;;;;4889608;29;20069;-91
2023/12/20 09:32:21;;;;;;;6.10;4.47;;;5.40;99.90;;;;;;4889090;29;20037;-91
2023/12/20 09:34:48;;;;;;;4.68;3.08;;;5.40;99.90;;;;;;4889472;29;20116;-91
2023/12/20 09:37:14;;;;;;;6.40;5.47;;;5.50;99.90;;;;;;4903873;29;20453;-90
2023/12/20 09:39:42;;;;;;;3.78;2.55;;;5.40;99.90;;;;;;4890756;29;20056;-91
2023/12/20 09:42:11;;;;;;;;;;;5.50;99.90;;;;;;4906084;29;20036;-88
2023/12/20 09:45:10;;;;;;;6.28;2.97;;;5.50;99.90;;;;;;4907918;29;19969;-91
2023/12/20 10:04:12;;;;;;;6.28;3.28;;;6.10;99.90;;;;;;5314202;23;20052;-92
2023/12/20 10:07:05;;;;;;;7.47;3.45;;;6.10;99.90;;;;;;5122122;23;20154;-91
2023/12/20 10:10:29;;;;;;;5.70;2.45;;;6.00;99.90;;;;;;4906786;29;20029;-91
2023/12/20 10:19:43;;;;;;;7.45;2.92;;;5.90;99.90;;;;;;4970730;28;20055;-92
2023/12/20 10:22:32;;;;;;;4.03;2.58;;;5.80;99.90;;;;;;5516408;23;20039;-96
2023/12/20 10:25:43;;;;;;;6.55;2.75;;;5.90;99.90;;;;;;5358575;23;20035;-95
2023/12/20 10:28:48;;;;;;;5.55;2.88;;;5.90;99.90;;;;;;4980428;28;20039;-95
2023/12/20 10:34:33;;;;;;;6.75;2.78;;;5.90;99.90;;;;;;5006109;23;20052;-93
2023/12/20 10:40:59;;;;;;;8.25;2.70;;;5.90;99.90;;;;;;4931271;29;20051;-90
2023/12/20 10:47:41;;;;;;;6.13;2.42;;;6.00;99.90;;;;;;5197929;23;20054;-95
2023/12/20 10:50:23;;;;;;;10.65;2.88;;;6.00;99.90;;;;;;4978736;28;20042;-95
2023/12/20 11:12:38;;;;;;;9.68;3.47;;;6.30;99.80;;;;;;5161587;23;20078;-91
2023/12/20 11:31:24;;;;;;;8.07;2.90;;;6.40;97.50;;;;;;4926689;29;20072;-91
2023/12/20 11:47:57;;;;;;;8.50;4.10;;;6.30;99.90;;;;;;5320502;23;20058;-91
2023/12/20 11:58:03;;;;;;;7.75;3.20;;;6.30;99.90;;;;;;4966866;28;20023;-92
2023/12/20 12:00:35;;;;;;;7.63;2.72;;;6.30;99.90;;;;;;4964953;29;20027;-92
2023/12/20 12:12:00;;;;;;;7.07;3.08;;;6.50;99.50;;;;;;5085783;23;20043;-95
2023/12/20 12:14:28;;;;;;;11.23;2.85;;;6.50;97.50;;;;;;4989403;28;20042;-93
2023/12/20 12:17:00;;;;;;;6.50;2.83;;;6.50;98.20;;;;;;4967083;28;20094;-96
2023/12/20 12:19:35;;;;;;;4.70;1.95;;;6.50;98.10;;;;;;4968291;28;20030;-96
2023/12/20 12:22:18;;;;;;;5.55;2.83;;;6.50;97.80;;;;;;4991418;28;20070;-96
2023/12/20 12:24:45;;;;;;;6.93;2.65;;;6.50;97.40;;;;;;4971698;23;20529;-90
2023/12/20 12:27:11;;;;;;;9.40;2.63;;;6.50;98.30;;;;;;4946234;29;20024;-91
2023/12/20 12:29:37;;;;;;;5.03;3.45;;;6.50;98.80;;;;;;4945670;29;20027;-90
2023/12/20 12:32:12;;;;;;;7.22;2.33;;;6.50;98.80;;;;;;4945995;29;20038;-91
2023/12/20 12:34:37;;;;;;;5.43;4.75;;;6.50;98.60;;;;;;4946120;29;20439;-91
2023/12/20 12:37:12;;;;;;;6.07;2.08;;;6.40;98.00;;;;;;4963088;28;20055;-91
2023/12/20 12:39:39;;;;;;;8.48;2.03;;;6.40;98.20;;;;;;4947692;29;20020;-90
2023/12/20 12:42:05;;;;;;;5.93;2.58;;;6.30;97.10;;;;;;4944546;29;20027;-91
2023/12/20 12:44:31;;;;;;;6.72;2.58;;;6.30;97.50;;;;;;4943890;29;20044;-91
2023/12/20 12:46:57;;;;;;;9.77;3.45;;;6.30;97.30;;;;;;4934885;29;20024;-90
2023/12/20 12:49:23;;;;;;;6.75;2.60;;;6.30;98.50;;;;;;4945379;29;20019;-90
2023/12/20 12:51:54;;;;;;;7.28;3.47;;;6.20;97.70;;;;;;4946673;29;20385;-90
2023/12/20 12:54:19;;;;;;;4.95;2.35;;;6.20;98.50;;;;;;4962147;29;20098;-91
2023/12/20 12:56:47;;;;;;;4.53;2.72;;;6.30;98.00;;;;;;4944545;29;20024;-90
2023/12/20 12:59:13;;;;;;;5.47;2.63;;;6.30;98.80;;;;;;4943305;29;20096;-91
2023/12/20 13:01:44;;;;;;;8.32;2.50;;;6.30;97.80;;;;;;4941310;29;20055;-91
2023/12/20 13:04:10;;;;;;;3.80;2.42;;;6.20;97.20;;;;;;4946384;29;20051;-91
2023/12/20 13:06:45;;;;;;;11.07;2.65;;;6.20;96.30;;;;;;4946195;29;20031;-90
2023/12/20 13:09:11;;;;;;;7.25;2.20;;;6.20;97.20;;;;;;4947097;29;20076;-90
2023/12/20 13:11:38;;;;;;;7.53;2.40;;;6.30;97.20;;;;;;4947185;29;20036;-91
2023/12/20 13:14:03;;;;;;;7.20;3.17;;;6.30;97.50;;;;;;4964434;28;20511;-91
2023/12/20 13:16:29;;;;;;;4.82;2.28;;;6.30;96.90;;;;;;4944671;29;20054;-89
2023/12/20 13:18:55;;;;;;;6.18;2.42;;;6.20;97.50;;;;;;4963333;28;20118;-88
2023/12/20 13:21:24;;;;;;;6.70;2.08;;;6.20;97.70;;;;;;4962294;28;20031;-91
2023/12/20 13:23:50;;;;;;;5.05;2.67;;;6.20;96.80;;;;;;4962583;28;20035;-90
2023/12/20 13:26:16;;;;;;;7.60;2.40;;;6.30;97.70;;;;;;4944881;29;20043;-88
2023/12/20 13:28:41;;;;;;;5.18;2.45;;;6.20;97.40;;;;;;4962976;28;20027;-89
2023/12/20 13:31:07;;;;;;;11.00;2.05;;;6.20;98.10;;;;;;4963656;28;20086;-91
2023/12/20 13:33:33;;;;;;;3.95;1.98;;;6.20;98.40;;;;;;4944616;29;20565;-92
2023/12/20 13:35:59;;;;;;;8.55;2.97;;;6.10;97.70;;;;;;4961993;28;20110;-90
2023/12/20 13:38:25;;;;;;;7.75;2.83;;;6.20;98.80;;;;;;4938731;29;20103;-90
2023/12/20 13:40:51;;;;;;;6.55;2.60;;;6.20;99.30;;;;;;4931187;29;20058;-91
2023/12/20 13:43:20;;;;;;;8.75;1.95;;;6.20;97.90;;;;;;4942977;29;20035;-90
2023/12/20 13:45:46;;;;;;;6.30;2.33;;;6.20;97.30;;;;;;4942722;29;20031;-91
2023/12/20 13:48:12;;;;;;;6.60;2.63;;;6.20;98.30;;;;;;4941487;29;20118;-90
2023/12/20 13:50:40;;;;;;;11.05;2.40;;;6.20;98.40;;;;;;4925099;29;20055;-90
2023/12/20 13:53:06;;;;;;;7.18;2.45;;;6.20;97.40;;;;;;4924470;29;20027;-89
2023/12/20 13:55:32;;;;;;;6.18;2.78;;;6.30;97.80;;;;;;4941674;29;20023;-89
2023/12/20 13:57:57;;;;;;;7.10;4.35;;;6.20;97.70;;;;;;4924954;29;20028;-91
2023/12/20 14:00:23;;;;;;;5.53;2.67;;;6.20;99.00;;;;;;4925590;29;20554;-90
2023/12/20 14:02:49;;;;;;;9.25;2.40;;;6.20;99.70;;;;;;4926142;29;20126;-91
2023/12/20 14:05:17;;;;;;;6.18;2.60;;;6.10;99.70;;;;;;4943609;29;20054;-91
2023/12/20 14:07:44;;;;;;;5.82;2.58;;;6.10;99.20;;;;;;4943098;29;20027;-91
2023/12/20 14:10:13;;;;;;;8.40;3.47;;;6.10;99.90;;;;;;4942463;29;20039;-89
2023/12/20 14:12:38;;;;;;;6.57;2.35;;;6.00;99.90;;;;;;4942928;29;20040;-90
2023/12/20 14:15:09;;;;;;;6.50;2.10;;;6.10;99.90;;;;;;4943023;29;20054;-88
2023/12/20 14:17:37;;;;;;;7.18;2.45;;;6.10;99.70;;;;;;4942459;29;20055;-91
2023/12/20 14:20:06;;;;;;;9.43;2.75;;;6.10;99.50;;;;;;4945044;29;20024;-89
2023/12/20 14:22:31;;;;;;;8.73;3.22;;;6.10;98.60;;;;;;4946679;29;20031;-91
2023/12/20 14:24:57;;;;;;;4.90;2.75;;;6.10;99.90;;;;;;4944430;29;20091;-89
2023/12/20 14:27:27;;;;;;;8.65;4.35;;;6.10;99.90;;;;;;4925898;29;20403;-91
2023/12/20 14:30:01;;;;;;;6.57;2.45;;;6.10;99.90;;;;;;4925415;29;20054;-90
2023/12/20 14:32:27;;;;;;;8.35;1.95;;;6.10;99.90;;;;;;4925163;29;20054;-89
2023/12/20 14:34:56;;;;;;;5.40;4.28;;;6.10;99.90;;;;;;4926716;29;20059;-90
2023/12/20 14:37:23;;;;;;;8.80;2.30;;;6.10;99.90;;;;;;4925427;29;20028;-92
2023/12/20 14:39:49;;;;;;;7.43;2.28;;;6.00;99.80;;;;;;4926501;29;20134;-90
2023/12/20 14:42:15;;;;;;;7.68;4.00;;;6.10;99.90;;;;;;4926116;29;20406;-90
2023/12/20 14:44:41;;;;;;;7.70;2.75;;;6.10;99.90;;;;;;4942874;29;20024;-90
2023/12/20 14:47:07;;;;;;;5.68;2.58;;;6.10;99.90;;;;;;4942040;29;20043;-91
2023/12/20 14:49:38;;;;;;;7.15;2.70;;;6.10;99.90;;;;;;4941862;29;20040;-89
2023/12/20 14:52:04;;;;;;;11.00;4.13;;;6.10;99.90;;;;;;4941429;29;20028;-91
2023/12/20 14:54:29;;;;;;;5.90;2.75;;;6.00;99.90;;;;;;4926595;29;20100;-90
2023/12/20 14:56:55;;;;;;;7.78;2.85;;;6.00;99.90;;;;;;4942484;29;20067;-89
2023/12/20 14:59:22;;;;;;;8.02;3.00;;;6.00;99.90;;;;;;4940515;29;20055;-90
2023/12/20 15:01:48;;;;;;;5.95;3.88;;;6.00;99.90;;;;;;4956103;29;20381;-88
2023/12/20 15:04:13;;;;;;;10.40;3.03;;;5.90;99.90;;;;;;4925103;29;20095;-89
2023/12/20 15:06:39;;;;;;;5.55;2.58;;;6.00;99.90;;;;;;4940163;29;20032;-90
2023/12/20 15:09:08;;;;;;;5.45;2.03;;;5.90;99.90;;;;;;4940692;29;20094;-92
2023/12/20 15:11:35;;;;;;;5.57;2.33;;;5.90;99.90;;;;;;4948992;28;20023;-91
2023/12/20 15:14:01;;;;;;;9.98;3.45;;;5.90;99.90;;;;;;4949902;28;20035;-89
2023/12/20 15:16:28;;;;;;;8.98;2.60;;;5.90;99.90;;;;;;4941224;28;20187;-88
2023/12/20 15:18:53;;;;;;;9.82;3.13;;;5.70;99.90;;;;;;4941438;29;20059;-90
2023/12/20 15:21:19;;;;;;;10.07;2.80;;;5.80;99.90;;;;;;4959701;28;20098;-90
2023/12/20 15:23:54;;;;;;;7.38;3.35;;;5.80;99.90;;;;;;4959698;28;20066;-89
2023/12/20 15:26:20;;;;;;;10.30;2.83;;;5.70;99.90;;;;;;4958202;28;20094;-90
2023/12/20 15:28:46;;;;;;;9.82;3.05;;;5.70;99.90;;;;;;4969514;28;20016;-91
2023/12/20 15:31:14;;;;;;;3.95;2.58;;;5.70;99.90;;;;;;4956488;28;20011;-92
2023/12/20 15:33:40;;;;;;;6.38;2.88;;;5.80;99.90;;;;;;4974435;28;20019;-92
2023/12/20 15:36:06;;;;;;;7.03;2.78;;;5.70;99.90;;;;;;4968367;28;20051;-93
2023/12/20 15:38:34;;;;;;;6.15;5.50;;;5.70;99.90;;;;;;4974438;28;20390;-90
2023/12/20 15:41:01;;;;;;;9.30;3.13;;;5.80;99.90;;;;;;4965121;28;20023;-91
2023/12/20 15:43:27;;;;;;;12.65;3.33;;;5.80;99.90;;;;;;4964257;28;20033;-93
2023/12/20 15:45:53;;;;;;;4.60;3.10;;;5.70;99.90;;;;;;4964854;28;20549;-91
2023/12/20 15:48:20;;;;;;;6.68;2.85;;;5.80;99.90;;;;;;4967388;28;20502;-89
2023/12/20 15:50:48;;;;;;;4.72;2.55;;;5.80;99.90;;;;;;4949188;29;20110;-91
2023/12/20 15:53:13;;;;;;;5.70;2.13;;;5.80;99.90;;;;;;4950704;29;20071;-90
2023/12/20 15:55:39;;;;;;;5.55;2.30;;;5.80;99.90;;;;;;4949642;29;20475;-91
2023/12/20 15:58:04;;;;;;;4.93;2.22;;;5.70;99.90;;;;;;4978481;28;20058;-90
2023/12/20 16:00:31;;;;;;;6.65;2.33;;;5.80;99.90;;;;;;4967623;28;20020;-90
2023/12/20 16:02:56;;;;;;;4.53;2.58;;;5.70;99.90;;;;;;4964407;28;20042;-91
2023/12/20 16:05:22;;;;;;;7.22;2.65;;;5.70;99.90;;;;;;4947470;29;20126;-90
2023/12/20 16:07:47;;;;;;;7.72;3.53;;;5.80;99.90;;;;;;4947706;29;20023;-90
2023/12/20 16:10:14;;;;;;;10.80;3.03;;;5.70;99.90;;;;;;4965618;28;20031;-90
2023/12/20 16:12:39;;;;;;;8.00;2.97;;;5.80;99.90;;;;;;4946961;29;20039;-89
2023/12/20 16:15:05;;;;;;;6.13;2.60;;;5.80;99.90;;;;;;4963107;28;20035;-89
2023/12/20 16:17:36;;;;;;;5.72;2.25;;;5.80;99.90;;;;;;4963928;28;20027;-90
2023/12/20 16:20:03;;;;;;;6.15;2.70;;;5.90;99.90;;;;;;4962819;28;20363;-90
2023/12/20 16:22:29;;;;;;;10.27;2.63;;;5.90;99.90;;;;;;4939616;29;20153;-89
2023/12/20 16:24:54;;;;;;;8.82;4.68;;;5.90;99.90;;;;;;4959825;28;20344;-90
2023/12/20 16:27:20;;;;;;;7.25;3.92;;;5.90;99.90;;;;;;4944171;29;20463;-89
2023/12/20 16:29:49;;;;;;;5.63;1.75;;;5.90;99.90;;;;;;4944778;29;20087;-91
2023/12/20 16:32:14;;;;;;;9.55;2.78;;;5.90;99.90;;;;;;4943813;29;20024;-90
2023/12/20 16:34:40;;;;;;;7.82;2.45;;;5.90;99.90;;;;;;4942665;29;20026;-90
2023/12/20 16:37:06;;;;;;;7.03;3.67;;;5.80;99.90;;;;;;4958875;28;20020;-90
2023/12/20 16:39:31;;;;;;;7.78;2.95;;;5.90;99.90;;;;;;4943702;29;20049;-91
2023/12/20 16:41:58;;;;;;;6.55;2.20;;;5.80;99.90;;;;;;4945442;29;20545;-90
2023/12/20 16:44:24;;;;;;;4.35;2.15;;;5.80;99.90;;;;;;4956890;28;20023;-89
2023/12/20 16:46:49;;;;;;;6.55;1.95;;;5.80;99.90;;;;;;4982731;28;20031;-90
2023/12/20 16:49:15;;;;;;;7.88;2.63;;;5.80;99.90;;;;;;4965733;28;20031;-91
2023/12/20 16:51:42;;;;;;;4.28;1.67;;;5.80;99.90;;;;;;4965193;28;20022;-90
2023/12/20 16:54:08;;;;;;;7.75;2.13;;;5.80;99.90;;;;;;4946328;29;20135;-90
2023/12/20 16:56:34;;;;;;;4.90;2.50;;;5.80;99.90;;;;;;4961818;28;20039;-90
2023/12/20 16:58:59;;;;;;;5.78;2.67;;;5.80;99.90;;;;;;4963865;28;20028;-91
2023/12/20 17:01:25;;;;;;;6.32;2.15;;;5.80;99.90;;;;;;4946287;29;20051;-90
2023/12/20 17:03:54;;;;;;;4.15;2.13;;;5.80;99.90;;;;;;4963342;28;20027;-90
2023/12/20 17:06:20;;;;;;;3.60;1.98;;;5.80;99.90;;;;;;4961950;28;20031;-91
2023/12/20 17:08:50;;;;;;;4.53;1.63;;;5.80;99.90;;;;;;4962986;28;20023;-90
2023/12/20 17:11:16;;;;;;;6.90;2.03;;;5.80;99.90;;;;;;4946796;29;20039;-90
2023/12/20 17:13:42;;;;;;;5.28;2.65;;;5.80;99.90;;;;;;4946763;29;20060;-90
2023/12/20 17:16:08;;;;;;;6.13;1.98;;;5.80;99.90;;;;;;4964112;28;20030;-90
2023/12/20 17:18:34;;;;;;;10.30;2.42;;;5.80;99.90;;;;;;4949085;29;20019;-91
2023/12/20 17:20:59;;;;;;;5.20;2.47;;;5.80;99.90;;;;;;4967001;28;20027;-91